DW3940 Weather Reports


Display with metric or nautical units.
time (UTC)temp
F
wind
direction
speed
MPH
gust
MPH
rain 1hr
in
rain 24hr
in
rain mn
in
humidity
%
barometer
mb
20180921083116 70 246 3.0 11.0 0.00 0.00 0.00 60 1018.5
20180921082615 70 221 5.0 11.0 0.00 0.00 0.00 61 1018.6
20180921082115 70 217 5.0 11.0 0.00 0.00 0.00 60 1018.6
20180921081615 70 267 3.0 7.0 0.00 0.00 0.00 61 1018.5
20180921081115 69 268 3.0 8.0 0.00 0.00 0.00 62 1018.6
20180921080616 69 270 3.0 8.0 0.00 0.00 0.00 63 1018.6
20180921080115 69 241 3.0 8.0 0.00 0.00 0.00 63 1018.5
20180921075615 69 269 2.0 7.0 0.00 0.00 0.00 64 1018.6
20180921075115 69 275 2.0 6.0 0.00 0.00 0.00 64 1018.6
20180921074615 68 279 3.0 6.0 0.00 0.00 0.00 65 1018.6
20180921074115 68 220 1.0 5.0 0.00 0.00 0.00 66 1018.5
20180921073616 68 246 2.0 7.0 0.00 0.00 0.00 68 1018.5
20180921073115 67 279 2.0 7.0 0.00 0.00 0.00 67 1018.5
20180921072615 67 250 2.0 7.0 0.00 0.00 0.00 68 1018.6
20180921072115 67 256 2.0 7.0 0.00 0.00 0.00 69 1018.5
20180921071615 67 265 2.0 7.0 0.00 0.00 0.00 69 1018.6
20180921071116 66 264 1.0 6.0 0.00 0.00 0.00 70 1018.5
20180921070616 66 278 2.0 6.0 0.00 0.00 0.00 70 1018.4
20180921070115 66 236 2.0 6.0 0.00 0.00 0.00 70 1018.5
20180921065615 66 230 1.0 4.0 0.00 0.00 0.00 71 1018.4
20180921065116 65 241 1.0 4.0 0.00 0.00 0.00 72 1018.4
20180921064615 65 217 2.0 6.0 0.00 0.00 0.00 72 1018.5
20180921064115 65 224 2.0 6.0 0.00 0.00 0.00 72 1018.4
20180921063615 65 218 1.0 5.0 0.00 0.00 0.00 73 1018.4
20180921063116 64 259 1.0 5.0 0.00 0.00 0.00 74 1018.4
20180921062615 64 243 1.0 4.0 0.00 0.00 0.00 76 1018.3
20180921062116 63 249 1.0 4.0 0.00 0.00 0.00 76 1018.4
20180921061615 63 240 1.0 4.0 0.00 0.00 0.00 77 1018.4
20180921061115 62 250 1.0 4.0 0.00 0.00 0.00 79 1018.4
20180921060615 62 250 2.0 5.0 0.00 0.00 0.00 79 1018.5
20180921060115 61 252 2.0 5.0 0.00 0.00 0.00 79 1018.4
20180921055615 61 244 1.0 4.0 0.00 0.00 0.00 80 1018.4
20180921055115 60 262 1.0 4.0 0.00 0.00 0.00 81 1018.3
20180921054615 60 270 2.0 4.0 0.00 0.00 0.00 82 1018.3
20180921054116 60 263 2.0 4.0 0.00 0.00 0.00 82 1018.3
20180921053615 59 266 2.0 6.0 0.00 0.00 0.00 83 1018.3
20180921053115 59 265 3.0 6.0 0.00 0.00 0.00 84 1018.3
20180921052615 59 268 3.0 7.0 0.00 0.00 0.00 84 1018.3
20180921052115 58 275 2.0 7.0 0.00 0.00 0.00 85 1018.3
20180921051620 58 276 2.0 6.0 0.00 0.00 0.00 85 1018.3
20180921051116 58 278 2.0 6.0 0.00 0.00 0.00 86 1018.2
20180921050615 58 258 2.0 6.0 0.00 0.00 0.00 86 1018.1
20180921050115 57 267 2.0 6.0 0.00 0.00 0.00 87 1018.1
20180921045615 57 266 3.0 6.0 0.00 0.00 0.00 87 1018.1
20180921045115 57 272 2.0 6.0 0.00 0.00 0.00 87 1018.1
20180921044615 57 272 2.0 6.0 0.00 0.00 0.00 87 1018.1
20180921044115 56 268 1.0 3.0 0.00 0.00 0.00 87 1018.1
20180921043615 56 264 1.0 3.0 0.00 0.00 0.00 87 1018.1
20180921043115 56 262 0.0 3.0 0.00 0.00 0.00 87 1018.0
20180921042615 56 262 0.0 2.0 0.00 0.00 0.00 87 1018.0
20180921042115 56 262 0.0 3.0 0.00 0.00 0.00 87 1018.0
20180921041615 56 262 0.0 3.0 0.00 0.00 0.00 87 1018.0
20180921041115 56 262 0.0 3.0 0.00 0.00 0.00 87 1018.0
20180921040615 56 0.0 2.0 0.00 0.00 0.00 87 1017.9
20180921040115 56 262 0.0 2.0 0.00 0.00 0.00 87 1017.9
20180921035615 56 262 0.0 2.0 0.00 0.00 0.00 88 1017.8
20180921035115 56 262 0.0 4.0 0.00 0.00 0.00 88 1017.7
20180921034615 56 262 2.0 4.0 0.00 0.00 0.00 88 1017.5
20180921034115 56 262 0.0 3.0 0.00 0.00 0.00 88 1017.6
20180921033615 56 262 0.0 3.0 0.00 0.00 0.00 88 1017.6
20180921033114 56 262 0.0 2.0 0.00 0.00 0.00 88 1017.5
20180921032614 56 0.0 4.0 0.00 0.00 0.00 88 1017.4
20180921032114 56 264 1.0 4.0 0.00 0.00 0.00 88 1017.4
20180921031615 56 263 1.0 4.0 0.00 0.00 0.00 88 1017.4
20180921031114 56 274 0.0 3.0 0.00 0.00 0.00 87 1017.4
20180921030616 56 274 0.0 7.0 0.00 0.00 0.00 87 1017.3
20180921030115 56 262 2.0 7.0 0.00 0.00 0.00 87 1017.3
20180921025614 56 261 3.0 6.0 0.00 0.00 0.00 87 1017.3
20180921025114 56 267 0.0 2.0 0.00 0.00 0.00 87 1017.3
20180921024615 56 267 0.0 3.0 0.00 0.00 0.00 87 1017.2
20180921024115 57 267 0.0 3.0 0.00 0.00 0.00 87 1017.3
20180921023615 56 268 1.0 4.0 0.00 0.00 0.00 87 1017.3
20180921023116 56 270 1.0 4.0 0.00 0.00 0.00 87 1017.2
20180921022614 56 270 0.0 4.0 0.00 0.00 0.00 87 1017.2
20180921022115 57 270 2.0 4.0 0.00 0.00 0.00 87 1017.1
20180921021614 57 270 1.0 4.0 0.00 0.00 0.00 86 1017.1
20180921021115 57 269 1.0 4.0 0.00 0.00 0.00 86 1017.0
20180921020614 57 267 1.0 4.0 0.00 0.00 0.00 86 1017.1
20180921020115 57 277 2.0 4.0 0.00 0.00 0.00 87 1017.0
20180921015615 57 269 1.0 4.0 0.00 0.00 0.00 86 1017.0
20180921015114 57 273 1.0 4.0 0.00 0.00 0.00 87 1017.0
20180921014615 57 283 1.0 4.0 0.00 0.00 0.00 86 1016.9
20180921014114 57 268 2.0 6.0 0.00 0.00 0.00 86 1016.9
20180921013615 57 268 2.0 6.0 0.00 0.00 0.00 86 1016.9
20180921013115 57 272 2.0 6.0 0.00 0.00 0.00 87 1016.9
20180921012614 57 274 2.0 6.0 0.00 0.00 0.00 86 1016.8
20180921012114 57 262 1.0 4.0 0.00 0.00 0.00 86 1016.9
20180921011615 57 259 1.0 4.0 0.00 0.00 0.00 86 1016.9
20180921011114 57 269 0.0 4.0 0.00 0.00 0.00 86 1016.9
20180921010615 57 273 1.0 4.0 0.00 0.00 0.00 87 1016.8
20180921010115 57 272 0.0 4.0 0.00 0.00 0.00 87 1016.7
20180921005615 57 276 2.0 4.0 0.00 0.00 0.00 87 1016.8
20180921005114 57 277 2.0 4.0 0.00 0.00 0.00 87 1016.9
20180921004614 57 276 2.0 4.0 0.00 0.00 0.00 87 1016.8
20180921004115 57 272 1.0 6.0 0.00 0.00 0.00 87 1016.8
20180921003615 57 276 2.0 6.0 0.00 0.00 0.00 87 1016.7
20180921003115 57 276 1.0 3.0 0.00 0.00 0.00 86 1016.7
20180921002615 57 276 1.0 4.0 0.00 0.00 0.00 86 1016.7
20180921002114 57 276 2.0 4.0 0.00 0.00 0.00 86 1016.7
20180921001614 57 276 1.0 3.0 0.00 0.00 0.00 86 1016.6
20180921001114 57 276 1.0 3.0 0.00 0.00 0.00 86 1016.7
20180921000614 57 276 1.0 3.0 0.00 0.00 0.00 86 1016.6
20180921000115 57 275 1.0 4.0 0.00 0.00 0.00 86 1016.6
20180920235614 57 276 1.0 4.0 0.00 0.00 0.00 86 1016.6
20180920235115 57 276 2.0 4.0 0.00 0.00 0.00 86 1016.6
20180920234614 57 275 2.0 4.0 0.00 0.00 0.00 85 1016.4
20180920234114 57 275 1.0 3.0 0.00 0.00 0.00 85 1016.4
20180920233614 58 274 1.0 3.0 0.00 0.00 0.00 85 1016.3
20180920233114 58 275 1.0 3.0 0.00 0.00 0.00 85 1016.3
20180920232614 58 275 0.0 3.0 0.00 0.00 0.00 85 1016.3
20180920232114 58 275 0.0 6.0 0.00 0.00 0.00 84 1016.3
20180920231614 58 273 2.0 6.0 0.00 0.00 0.00 84 1016.3
20180920231114 58 275 2.0 6.0 0.00 0.00 0.00 84 1016.3
20180920230614 58 277 3.0 6.0 0.00 0.00 0.00 84 1016.3
20180920230115 58 275 3.0 6.0 0.00 0.00 0.00 84 1016.3
20180920225614 58 277 3.0 7.0 0.00 0.00 0.00 84 1016.3
20180920225114 58 279 4.0 7.0 0.00 0.00 0.00 84 1016.3
20180920224614 58 281 3.0 6.0 0.00 0.00 0.00 84 1016.3
20180920224114 58 281 2.0 7.0 0.00 0.00 0.00 84 1016.3
20180920223614 58 280 3.0 7.0 0.00 0.00 0.00 83 1016.2
20180920223114 58 282 3.0 7.0 0.00 0.00 0.00 83 1016.3
20180920222614 59 283 4.0 8.0 0.00 0.00 0.00 83 1016.2
20180920222114 59 282 4.0 8.0 0.00 0.00 0.00 83 1016.1
20180920221614 59 280 4.0 7.0 0.00 0.00 0.00 82 1016.2
20180920221114 59 281 4.0 7.0 0.00 0.00 0.00 82 1016.1
20180920220614 59 278 3.0 7.0 0.00 0.00 0.00 82 1016.1
20180920220114 59 281 3.0 7.0 0.00 0.00 0.00 82 1016.1
20180920215614 59 280 3.0 8.0 0.00 0.00 0.00 81 1016.0
20180920215116 59 281 3.0 8.0 0.00 0.00 0.00 81 1016.1
20180920214614 60 282 3.0 7.0 0.00 0.00 0.00 81 1016.0
20180920214116 60 284 3.0 7.0 0.00 0.00 0.00 80 1015.9
20180920213614 60 282 4.0 7.0 0.00 0.00 0.00 80 1015.9
20180920213114 60 286 2.0 8.0 0.00 0.00 0.00 80 1015.8
20180920212616 60 285 3.0 8.0 0.00 0.00 0.00 79 1015.8
20180920212114 60 280 4.0 8.0 0.00 0.00 0.00 79 1015.8
20180920211614 60 277 4.0 8.0 0.00 0.00 0.00 79 1015.8
20180920211115 60 281 4.0 8.0 0.00 0.00 0.00 79 1015.7
20180920210614 61 280 3.0 8.0 0.00 0.00 0.00 78 1015.7
20180920210114 61 282 2.0 9.0 0.00 0.00 0.00 78 1015.7
20180920205615 61 287 4.0 9.0 0.00 0.00 0.00 78 1015.6
20180920205115 61 282 4.0 8.0 0.00 0.00 0.00 78 1015.6
20180920204615 61 280 5.0 8.0 0.00 0.00 0.00 77 1015.6
20180920204114 61 284 4.0 8.0 0.00 0.00 0.00 77 1015.6
20180920203615 61 284 5.0 9.0 0.00 0.00 0.00 77 1015.6
20180920203115 61 284 4.0 9.0 0.00 0.00 0.00 76 1015.5
20180920202615 62 281 4.0 9.0 0.00 0.00 0.00 76 1015.5
20180920202115 62 284 4.0 9.0 0.00 0.00 0.00 75 1015.5
20180920201615 62 281 4.0 9.0 0.00 0.00 0.00 75 1015.5
20180920201125 62 283 4.0 9.0 0.00 0.00 0.00 74 1015.5
20180920200615 62 283 5.0 8.0 0.00 0.00 0.00 74 1015.4
20180920200115 62 288 3.0 8.0 0.00 0.00 0.00 74 1015.4
20180920195619 62 285 3.0 8.0 0.00 0.00 0.00 73 1015.4
20180920195115 62 283 4.0 8.0 0.00 0.00 0.00 73 1015.5
20180920194614 62 283 3.0 8.0 0.00 0.00 0.00 73 1015.5
20180920194114 62 276 3.0 8.0 0.00 0.00 0.00 72 1015.5
20180920193615 63 272 3.0 8.0 0.00 0.00 0.00 72 1015.4
20180920193114 63 285 2.0 6.0 0.00 0.00 0.00 72 1015.4
20180920192615 63 284 2.0 6.0 0.00 0.00 0.00 72 1015.4
20180920192114 63 274 2.0 6.0 0.00 0.00 0.00 71 1015.4
20180920191614 63 280 2.0 6.0 0.00 0.00 0.00 71 1015.4
20180920191115 63 280 1.0 6.0 0.00 0.00 0.00 71 1015.4
20180920190614 63 285 2.0 7.0 0.00 0.00 0.00 70 1015.3
20180920190114 63 280 2.0 7.0 0.00 0.00 0.00 70 1015.3
20180920185615 63 284 1.0 6.0 0.00 0.00 0.00 70 1015.3
20180920185115 63 283 2.0 4.0 0.00 0.00 0.00 70 1015.3
20180920184614 63 287 1.0 3.0 0.00 0.00 0.00 70 1015.3
20180920184114 63 288 1.0 4.0 0.00 0.00 0.00 70 1015.3
20180920183615 63 287 2.0 5.0 0.00 0.00 0.00 69 1015.3
20180920183115 63 287 2.0 6.0 0.00 0.00 0.00 69 1015.3
20180920182614 63 289 3.0 7.0 0.00 0.00 0.00 68 1015.2
20180920182114 64 285 3.0 8.0 0.00 0.00 0.00 68 1015.3
20180920181614 64 284 3.0 8.0 0.00 0.00 0.00 68 1015.3
20180920181114 64 288 3.0 8.0 0.00 0.00 0.00 68 1015.3
20180920180614 64 287 3.0 8.0 0.00 0.00 0.00 68 1015.3
20180920180114 64 285 2.0 6.0 0.00 0.00 0.00 68 1015.3
20180920175614 64 284 2.0 6.0 0.00 0.00 0.00 68 1015.3
20180920175114 64 283 2.0 6.0 0.00 0.00 0.00 67 1015.2
20180920174616 64 282 3.0 6.0 0.00 0.00 0.00 67 1015.2
20180920174114 64 282 3.0 6.0 0.00 0.00 0.00 66 1015.2
20180920173614 64 277 3.0 7.0 0.00 0.00 0.00 66 1015.2
20180920173115 64 283 3.0 7.0 0.00 0.00 0.00 66 1015.2
20180920172614 64 281 3.0 6.0 0.00 0.00 0.00 65 1015.2
20180920172114 64 284 2.0 6.0 0.00 0.00 0.00 65 1015.2
20180920171614 64 280 2.0 6.0 0.00 0.00 0.00 65 1015.1
20180920171114 64 277 3.0 6.0 0.00 0.00 0.00 65 1015.1
20180920170614 64 281 3.0 6.0 0.00 0.00 0.00 65 1015.1
20180920170115 65 284 2.0 4.0 0.00 0.00 0.00 64 1015.1
20180920165614 65 291 1.0 4.0 0.00 0.00 0.00 64 1015.0
20180920165115 65 293 1.0 4.0 0.00 0.00 0.00 64 1015.0
20180920164614 65 292 1.0 4.0 0.00 0.00 0.00 64 1015.0
20180920164114 65 288 2.0 6.0 0.00 0.00 0.00 64 1015.0
20180920163615 65 282 2.0 6.0 0.00 0.00 0.00 63 1015.0
20180920163114 65 282 2.0 4.0 0.00 0.00 0.00 63 1015.0
20180920162614 65 296 1.0 4.0 0.00 0.00 0.00 62 1014.9
20180920162114 65 296 0.0 3.0 0.00 0.00 0.00 62 1014.9
20180920161614 66 296 0.0 2.0 0.00 0.00 0.00 61 1014.8
20180920161114 66 296 0.0 2.0 0.00 0.00 0.00 60 1014.8
20180920160614 66 296 1.0 3.0 0.00 0.00 0.00 60 1014.8
20180920160114 67 296 1.0 3.0 0.00 0.00 0.00 59 1014.8
20180920155614 67 296 0.0 3.0 0.00 0.00 0.00 58 1014.7
20180920155126 67 296 0.0 3.0 0.00 0.00 0.00 58 1014.7
20180920154614 67 296 0.0 3.0 0.00 0.00 0.00 57 1014.7
20180920154114 67 296 0.0 3.0 0.00 0.00 0.00 57 1014.7
20180920153614 67 296 1.0 3.0 0.00 0.00 0.00 56 1014.6
20180920153114 68 296 1.0 3.0 0.00 0.00 0.00 55 1014.5
20180920152614 68 303 1.0 4.0 0.00 0.00 0.00 55 1014.6
20180920152114 68 311 1.0 4.0 0.00 0.00 0.00 54 1014.6
20180920151614 69 279 1.0 4.0 0.00 0.00 0.00 53 1014.6
20180920151115 69 291 0.0 4.0 0.00 0.00 0.00 52 1014.6
20180920150614 69 281 1.0 4.0 0.00 0.00 0.00 52 1014.5
20180920150114 70 299 1.0 6.0 0.00 0.00 0.00 51 1014.4
20180920145614 70 280 2.0 8.0 0.00 0.00 0.00 51 1014.3
20180920145114 70 282 2.0 8.0 0.00 0.00 0.00 51 1014.3
20180920144614 70 269 2.0 9.0 0.00 0.00 0.00 50 1014.3
20180920144114 70 257 2.0 9.0 0.00 0.00 0.00 49 1014.2
20180920143614 71 284 3.0 9.0 0.00 0.00 0.00 49 1014.2
20180920143115 71 284 4.0 9.0 0.00 0.00 0.00 49 1014.2
20180920142614 71 289 2.0 10.0 0.00 0.00 0.00 49 1014.2
20180920142114 71 290 4.0 10.0 0.00 0.00 0.00 49 1014.1
20180920141615 72 285 1.0 8.0 0.00 0.00 0.00 49 1014.2
20180920141114 72 242 0.0 4.0 0.00 0.00 0.00 49 1014.1
20180920140614 72 277 1.0 7.0 0.00 0.00 0.00 48 1014.1
20180920140114 72 281 2.0 7.0 0.00 0.00 0.00 48 1014.0
20180920135614 72 277 2.0 12.0 0.00 0.00 0.00 48 1014.0
20180920135114 72 295 4.0 12.0 0.00 0.00 0.00 48 1013.8
20180920134614 72 289 2.0 9.0 0.00 0.00 0.00 48 1013.8
20180920134114 72 306 2.0 9.0 0.00 0.00 0.00 49 1013.7
20180920133614 72 274 2.0 7.0 0.00 0.00 0.00 49 1013.7
20180920133115 72 288 1.0 10.0 0.00 0.00 0.00 50 1013.7
20180920132614 72 304 3.0 10.0 0.00 0.00 0.00 49 1013.7
20180920132114 72 285 4.0 10.0 0.00 0.00 0.00 48 1013.7
20180920131614 72 284 4.0 10.0 0.00 0.00 0.00 48 1013.6
20180920131115 72 318 2.0 11.0 0.00 0.00 0.00 49 1013.6
20180920130614 72 292 3.0 11.0 0.00 0.00 0.00 49 1013.5
20180920130114 72 5 2.0 7.0 0.00 0.00 0.00 50 1013.5
20180920125614 72 43 2.0 7.0 0.00 0.00 0.00 50 1013.5
20180920125114 72 281 2.0 11.0 0.00 0.00 0.00 50 1013.5
20180920124614 72 288 3.0 11.0 0.00 0.00 0.00 49 1013.6
20180920124114 71 278 3.0 12.0 0.00 0.00 0.00 51 1013.6
20180920123614 71 294 5.0 12.0 0.00 0.00 0.00 51 1013.6
20180920123113 72 283 4.0 11.0 0.00 0.00 0.00 51 1013.5
20180920122614 72 273 3.0 11.0 0.00 0.00 0.00 52 1013.5
20180920122113 72 268 3.0 9.0 0.00 0.00 0.00 53 1013.5
20180920121614 72 277 2.0 10.0 0.00 0.00 0.00 53 1013.5
20180920121114 72 293 3.0 14.0 0.00 0.00 0.00 53 1013.5
20180920120615 72 265 3.0 14.0 0.00 0.00 0.00 53 1013.3
20180920120114 72 298 3.0 10.0 0.00 0.00 0.00 54 1013.4
20180920115615 72 258 3.0 9.0 0.00 0.00 0.00 54 1013.4
20180920115126 71 270 3.0 8.0 0.00 0.00 0.00 54 1013.4
20180920114744 71 279 2.0 10.0 0.00 0.00 0.00 54 1013.4
20180920114114 71 277 3.0 10.0 0.00 0.00 0.00 54 1013.4
20180920113614 71 268 4.0 12.0 0.00 0.00 0.00 55 1013.4
20180920113114 71 279 5.0 12.0 0.00 0.00 0.00 54 1013.4
20180920112614 71 82 2.0 8.0 0.00 0.00 0.00 55 1013.3
20180920112114 71 276 3.0 11.0 0.00 0.00 0.00 55 1013.3
20180920111614 71 271 4.0 11.0 0.00 0.00 0.00 55 1013.3
20180920111114 71 265 3.0 10.0 0.00 0.00 0.00 55 1013.3
20180920110614 71 281 4.0 10.0 0.00 0.00 0.00 56 1013.2
20180920110115 71 310 3.0 10.0 0.00 0.00 0.00 56 1013.1
20180920105614 71 285 3.0 10.0 0.00 0.00 0.00 56 1013.0
20180920105114 70 275 4.0 11.0 0.00 0.00 0.00 56 1013.0
20180920104613 70 293 3.0 11.0 0.00 0.00 0.00 56 1013.1
20180920104114 70 268 4.0 12.0 0.00 0.00 0.00 57 1012.9
20180920103614 70 295 4.0 14.0 0.00 0.00 0.00 58 1012.9
20180920103114 70 279 5.0 14.0 0.00 0.00 0.00 57 1012.9
20180920102613 70 302 3.0 13.0 0.00 0.00 0.00 58 1012.8
20180920102114 69 273 6.0 13.0 0.00 0.00 0.00 58 1012.8
20180920101614 69 275 5.0 13.0 0.00 0.00 0.00 58 1012.8
20180920101114 69 281 7.0 17.0 0.00 0.00 0.00 58 1012.7
20180920100613 69 288 7.0 17.0 0.00 0.00 0.00 59 1012.7
20180920100114 69 283 6.0 16.0 0.00 0.00 0.00 59 1012.7
20180920095614 69 273 3.0 14.0 0.00 0.00 0.00 59 1012.6
20180920095114 69 283 6.0 14.0 0.00 0.00 0.00 57 1012.5
20180920094613 69 281 4.0 11.0 0.00 0.00 0.00 57 1012.5
20180920094114 69 289 4.0 11.0 0.00 0.00 0.00 57 1012.6
20180920093613 69 278 5.0 17.0 0.00 0.00 0.00 60 1012.6
20180920093115 69 276 7.0 18.0 0.00 0.00 0.00 60 1012.6
20180920092614 68 280 10.0 18.0 0.00 0.00 0.00 59 1012.5
20180920092113 68 281 10.0 18.0 0.00 0.00 0.00 59 1012.6
20180920091615 68 275 8.0 18.0 0.00 0.00 0.00 59 1012.5
20180920091114 68 282 9.0 18.0 0.00 0.00 0.00 59 1012.4
20180920090613 68 287 9.0 17.0 0.00 0.00 0.00 60 1012.4
20180920090114 69 290 6.0 16.0 0.00 0.00 0.00 59 1012.4
20180920085629 68 280 5.0 15.0 0.00 0.00 0.00 63 1012.3
20180920085114 68 280 6.0 18.0 0.00 0.00 0.00 64 1012.3
20180920084613 68 281 10.0 18.0 0.00 0.00 0.00 64 1012.2
20180920084113 68 269 7.0 15.0 0.00 0.00 0.00 65 1012.2
20180920083614 67 281 6.0 13.0 0.00 0.00 0.00 67 1012.1